sensor_id;sensor_type;location;lat;lon;timestamp;P1;durP1;ratioP1;P2;durP2;ratioP2
41532;SDS011;27262;-35.248;149.138;2023-09-30T00:01:38;3.33;;;0.55;;
41532;SDS011;27262;-35.248;149.138;2023-09-30T00:04:08;2.17;;;0.45;;
41532;SDS011;27262;-35.248;149.138;2023-09-30T00:06:39;2.40;;;0.70;;
41532;SDS011;27262;-35.248;149.138;2023-09-30T00:09:09;0.60;;;0.50;;
41532;SDS011;27262;-35.248;149.138;2023-09-30T00:11:40;0.65;;;0.55;;
41532;SDS011;27262;-35.248;149.138;2023-09-30T00:14:14;2.03;;;0.45;;
41532;SDS011;27262;-35.248;149.138;2023-09-30T00:16:45;0.55;;;0.40;;
41532;SDS011;27262;-35.248;149.138;2023-09-30T00:19:16;2.20;;;0.52;;
41532;SDS011;27262;-35.248;149.138;2023-09-30T00:21:46;1.40;;;0.60;;
41532;SDS011;27262;-35.248;149.138;2023-09-30T00:24:17;1.35;;;0.55;;
41532;SDS011;27262;-35.248;149.138;2023-09-30T00:26:48;0.75;;;0.60;;
41532;SDS011;27262;-35.248;149.138;2023-09-30T00:29:19;1.38;;;0.40;;
41532;SDS011;27262;-35.248;149.138;2023-09-30T00:31:49;2.28;;;0.52;;
41532;SDS011;27262;-35.248;149.138;2023-09-30T00:34:20;0.50;;;0.40;;
41532;SDS011;27262;-35.248;149.138;2023-09-30T00:36:50;1.73;;;0.70;;
41532;SDS011;27262;-35.248;149.138;2023-09-30T00:39:22;0.70;;;0.57;;
41532;SDS011;27262;-35.248;149.138;2023-09-30T00:41:58;1.63;;;0.70;;
41532;SDS011;27262;-35.248;149.138;2023-09-30T00:44:29;0.57;;;0.50;;
41532;SDS011;27262;-35.248;149.138;2023-09-30T00:46:59;1.08;;;0.50;;
41532;SDS011;27262;-35.248;149.138;2023-09-30T00:49:30;1.80;;;0.70;;
41532;SDS011;27262;-35.248;149.138;2023-09-30T00:52:02;1.95;;;0.63;;
41532;SDS011;27262;-35.248;149.138;2023-09-30T00:54:33;2.42;;;0.63;;
41532;SDS011;27262;-35.248;149.138;2023-09-30T00:57:06;1.35;;;0.57;;
41532;SDS011;27262;-35.248;149.138;2023-09-30T00:59:37;0.50;;;0.50;;
41532;SDS011;27262;-35.248;149.138;2023-09-30T01:02:08;2.33;;;0.70;;
41532;SDS011;27262;-35.248;149.138;2023-09-30T01:04:38;1.23;;;0.50;;
41532;SDS011;27262;-35.248;149.138;2023-09-30T01:07:10;1.00;;;0.50;;
41532;SDS011;27262;-35.248;149.138;2023-09-30T01:09:41;0.90;;;0.60;;
41532;SDS011;27262;-35.248;149.138;2023-09-30T01:12:11;1.70;;;0.60;;
41532;SDS011;27262;-35.248;149.138;2023-09-30T01:14:42;0.65;;;0.40;;
41532;SDS011;27262;-35.248;149.138;2023-09-30T01:17:13;0.75;;;0.50;;
41532;SDS011;27262;-35.248;149.138;2023-09-30T01:19:44;1.05;;;0.60;;
41532;SDS011;27262;-35.248;149.138;2023-09-30T01:22:15;1.77;;;0.50;;
41532;SDS011;27262;-35.248;149.138;2023-09-30T01:24:46;3.90;;;0.57;;
41532;SDS011;27262;-35.248;149.138;2023-09-30T01:27:17;2.83;;;0.65;;
41532;SDS011;27262;-35.248;149.138;2023-09-30T01:29:48;2.03;;;0.57;;
41532;SDS011;27262;-35.248;149.138;2023-09-30T01:32:19;0.60;;;0.40;;
41532;SDS011;27262;-35.248;149.138;2023-09-30T01:34:51;1.00;;;0.80;;
41532;SDS011;27262;-35.248;149.138;2023-09-30T01:37:21;2.17;;;0.60;;
41532;SDS011;27262;-35.248;149.138;2023-09-30T01:39:52;1.45;;;0.70;;
41532;SDS011;27262;-35.248;149.138;2023-09-30T01:42:23;1.15;;;0.50;;
41532;SDS011;27262;-35.248;149.138;2023-09-30T01:44:54;1.38;;;0.63;;
41532;SDS011;27262;-35.248;149.138;2023-09-30T01:47:27;2.97;;;0.80;;
41532;SDS011;27262;-35.248;149.138;2023-09-30T01:49:58;1.73;;;0.90;;
41532;SDS011;27262;-35.248;149.138;2023-09-30T01:52:28;1.92;;;1.05;;
41532;SDS011;27262;-35.248;149.138;2023-09-30T01:54:59;1.45;;;0.88;;
41532;SDS011;27262;-35.248;149.138;2023-09-30T01:57:30;1.50;;;0.90;;
41532;SDS011;27262;-35.248;149.138;2023-09-30T02:00:01;4.00;;;1.05;;
41532;SDS011;27262;-35.248;149.138;2023-09-30T02:02:32;3.55;;;1.00;;
41532;SDS011;27262;-35.248;149.138;2023-09-30T02:05:02;1.00;;;0.88;;
41532;SDS011;27262;-35.248;149.138;2023-09-30T02:07:34;2.42;;;1.10;;
41532;SDS011;27262;-35.248;149.138;2023-09-30T02:10:05;0.90;;;0.75;;
41532;SDS011;27262;-35.248;149.138;2023-09-30T02:12:35;1.33;;;0.80;;
41532;SDS011;27262;-35.248;149.138;2023-09-30T02:15:06;2.70;;;0.75;;
41532;SDS011;27262;-35.248;149.138;2023-09-30T02:17:37;1.17;;;0.75;;
41532;SDS011;27262;-35.248;149.138;2023-09-30T02:20:08;3.22;;;1.17;;
41532;SDS011;27262;-35.248;149.138;2023-09-30T02:22:41;1.50;;;0.90;;
41532;SDS011;27262;-35.248;149.138;2023-09-30T02:25:17;1.90;;;0.70;;
41532;SDS011;27262;-35.248;149.138;2023-09-30T02:27:47;1.88;;;0.95;;
41532;SDS011;27262;-35.248;149.138;2023-09-30T02:30:18;1.30;;;0.50;;
41532;SDS011;27262;-35.248;149.138;2023-09-30T02:32:49;1.15;;;1.05;;
41532;SDS011;27262;-35.248;149.138;2023-09-30T02:35:20;1.10;;;0.90;;
41532;SDS011;27262;-35.248;149.138;2023-09-30T02:37:50;1.15;;;0.82;;
41532;SDS011;27262;-35.248;149.138;2023-09-30T02:40:21;0.80;;;0.80;;
41532;SDS011;27262;-35.248;149.138;2023-09-30T02:43:11;1.70;;;0.85;;
41532;SDS011;27262;-35.248;149.138;2023-09-30T02:45:48;2.38;;;0.80;;
41532;SDS011;27262;-35.248;149.138;2023-09-30T02:48:19;3.47;;;0.93;;
41532;SDS011;27262;-35.248;149.138;2023-09-30T02:50:50;2.65;;;0.88;;
41532;SDS011;27262;-35.248;149.138;2023-09-30T02:53:20;2.00;;;0.90;;
41532;SDS011;27262;-35.248;149.138;2023-09-30T02:55:51;4.25;;;1.10;;
41532;SDS011;27262;-35.248;149.138;2023-09-30T02:58:25;1.50;;;0.90;;
41532;SDS011;27262;-35.248;149.138;2023-09-30T03:00:56;3.10;;;0.90;;
41532;SDS011;27262;-35.248;149.138;2023-09-30T03:03:28;2.38;;;1.35;;
41532;SDS011;27262;-35.248;149.138;2023-09-30T03:05:59;2.10;;;0.82;;
41532;SDS011;27262;-35.248;149.138;2023-09-30T03:08:30;1.83;;;1.05;;
41532;SDS011;27262;-35.248;149.138;2023-09-30T03:11:01;4.10;;;1.10;;
41532;SDS011;27262;-35.248;149.138;2023-09-30T03:13:32;1.60;;;0.98;;
41532;SDS011;27262;-35.248;149.138;2023-09-30T03:16:03;2.17;;;1.00;;
41532;SDS011;27262;-35.248;149.138;2023-09-30T03:18:33;4.72;;;1.08;;
41532;SDS011;27262;-35.248;149.138;2023-09-30T03:21:12;2.55;;;0.95;;
41532;SDS011;27262;-35.248;149.138;2023-09-30T03:23:43;4.80;;;1.52;;
41532;SDS011;27262;-35.248;149.138;2023-09-30T03:26:14;7.07;;;1.05;;
41532;SDS011;27262;-35.248;149.138;2023-09-30T03:28:45;2.15;;;1.05;;
41532;SDS011;27262;-35.248;149.138;2023-09-30T03:31:19;3.22;;;1.20;;
41532;SDS011;27262;-35.248;149.138;2023-09-30T03:33:51;3.05;;;1.17;;
41532;SDS011;27262;-35.248;149.138;2023-09-30T03:36:25;2.78;;;0.90;;
41532;SDS011;27262;-35.248;149.138;2023-09-30T03:38:55;2.88;;;1.02;;
41532;SDS011;27262;-35.248;149.138;2023-09-30T03:41:34;1.77;;;0.88;;
41532;SDS011;27262;-35.248;149.138;2023-09-30T03:44:05;4.63;;;1.10;;
41532;SDS011;27262;-35.248;149.138;2023-09-30T03:46:36;1.55;;;0.82;;
41532;SDS011;27262;-35.248;149.138;2023-09-30T03:49:07;2.65;;;1.02;;
41532;SDS011;27262;-35.248;149.138;2023-09-30T03:51:37;1.02;;;0.82;;
41532;SDS011;27262;-35.248;149.138;2023-09-30T03:54:08;3.78;;;1.02;;
41532;SDS011;27262;-35.248;149.138;2023-09-30T03:56:38;7.38;;;1.33;;
41532;SDS011;27262;-35.248;149.138;2023-09-30T03:59:10;1.85;;;1.13;;
41532;SDS011;27262;-35.248;149.138;2023-09-30T04:01:40;2.50;;;0.93;;
41532;SDS011;27262;-35.248;149.138;2023-09-30T04:04:11;4.47;;;1.13;;
41532;SDS011;27262;-35.248;149.138;2023-09-30T04:06:42;1.92;;;0.93;;
41532;SDS011;27262;-35.248;149.138;2023-09-30T04:09:15;5.75;;;1.15;;
41532;SDS011;27262;-35.248;149.138;2023-09-30T04:11:46;3.33;;;1.20;;
41532;SDS011;27262;-35.248;149.138;2023-09-30T04:14:17;3.22;;;1.20;;
41532;SDS011;27262;-35.248;149.138;2023-09-30T04:16:52;1.58;;;1.10;;
41532;SDS011;27262;-35.248;149.138;2023-09-30T04:19:26;1.63;;;1.20;;
41532;SDS011;27262;-35.248;149.138;2023-09-30T04:21:59;2.35;;;1.10;;
41532;SDS011;27262;-35.248;149.138;2023-09-30T04:24:29;1.27;;;1.00;;
41532;SDS011;27262;-35.248;149.138;2023-09-30T04:26:59;1.33;;;0.70;;
41532;SDS011;27262;-35.248;149.138;2023-09-30T04:29:33;2.67;;;1.20;;
41532;SDS011;27262;-35.248;149.138;2023-09-30T04:32:03;1.77;;;0.90;;
41532;SDS011;27262;-35.248;149.138;2023-09-30T04:34:35;1.55;;;1.10;;
41532;SDS011;27262;-35.248;149.138;2023-09-30T04:37:05;1.45;;;0.90;;
41532;SDS011;27262;-35.248;149.138;2023-09-30T04:39:37;2.67;;;1.10;;
41532;SDS011;27262;-35.248;149.138;2023-09-30T04:42:08;3.05;;;0.93;;
41532;SDS011;27262;-35.248;149.138;2023-09-30T04:44:39;4.03;;;1.02;;
41532;SDS011;27262;-35.248;149.138;2023-09-30T04:47:10;3.20;;;0.70;;
41532;SDS011;27262;-35.248;149.138;2023-09-30T04:49:41;2.47;;;0.95;;
41532;SDS011;27262;-35.248;149.138;2023-09-30T04:52:12;1.67;;;0.90;;
41532;SDS011;27262;-35.248;149.138;2023-09-30T04:54:42;0.98;;;0.90;;
41532;SDS011;27262;-35.248;149.138;2023-09-30T04:57:14;1.33;;;0.88;;
41532;SDS011;27262;-35.248;149.138;2023-09-30T04:59:44;3.35;;;0.85;;
41532;SDS011;27262;-35.248;149.138;2023-09-30T05:02:15;1.13;;;1.02;;
41532;SDS011;27262;-35.248;149.138;2023-09-30T05:04:45;1.77;;;0.98;;
41532;SDS011;27262;-35.248;149.138;2023-09-30T05:07:15;2.35;;;0.77;;
41532;SDS011;27262;-35.248;149.138;2023-09-30T05:09:46;1.40;;;0.80;;
41532;SDS011;27262;-35.248;149.138;2023-09-30T05:12:16;1.25;;;0.73;;
41532;SDS011;27262;-35.248;149.138;2023-09-30T05:14:47;1.92;;;1.30;;
41532;SDS011;27262;-35.248;149.138;2023-09-30T05:17:17;1.25;;;0.98;;
41532;SDS011;27262;-35.248;149.138;2023-09-30T05:19:50;1.40;;;0.90;;
41532;SDS011;27262;-35.248;149.138;2023-09-30T05:22:21;1.65;;;0.80;;
41532;SDS011;27262;-35.248;149.138;2023-09-30T05:24:53;1.08;;;0.88;;
41532;SDS011;27262;-35.248;149.138;2023-09-30T05:27:24;3.03;;;1.13;;
41532;SDS011;27262;-35.248;149.138;2023-09-30T05:29:55;1.38;;;1.02;;
41532;SDS011;27262;-35.248;149.138;2023-09-30T05:32:26;1.80;;;0.98;;
41532;SDS011;27262;-35.248;149.138;2023-09-30T05:34:56;1.63;;;0.98;;
41532;SDS011;27262;-35.248;149.138;2023-09-30T05:37:26;1.25;;;1.00;;
41532;SDS011;27262;-35.248;149.138;2023-09-30T05:39:57;1.95;;;1.00;;
41532;SDS011;27262;-35.248;149.138;2023-09-30T05:42:27;0.70;;;0.70;;
41532;SDS011;27262;-35.248;149.138;2023-09-30T05:44:58;4.53;;;1.05;;
41532;SDS011;27262;-35.248;149.138;2023-09-30T05:47:29;1.08;;;0.93;;
41532;SDS011;27262;-35.248;149.138;2023-09-30T05:49:59;1.85;;;1.00;;
41532;SDS011;27262;-35.248;149.138;2023-09-30T05:52:32;4.53;;;0.93;;
41532;SDS011;27262;-35.248;149.138;2023-09-30T05:55:03;1.23;;;1.13;;
41532;SDS011;27262;-35.248;149.138;2023-09-30T05:57:33;3.45;;;1.20;;
41532;SDS011;27262;-35.248;149.138;2023-09-30T06:00:04;2.83;;;0.90;;
41532;SDS011;27262;-35.248;149.138;2023-09-30T06:02:59;1.05;;;0.80;;
41532;SDS011;27262;-35.248;149.138;2023-09-30T06:05:30;2.65;;;0.90;;
41532;SDS011;27262;-35.248;149.138;2023-09-30T06:08:01;1.92;;;0.77;;
41532;SDS011;27262;-35.248;149.138;2023-09-30T06:10:33;2.55;;;0.90;;
41532;SDS011;27262;-35.248;149.138;2023-09-30T06:13:06;1.42;;;0.85;;
41532;SDS011;27262;-35.248;149.138;2023-09-30T06:15:38;1.80;;;1.00;;
41532;SDS011;27262;-35.248;149.138;2023-09-30T06:18:12;0.80;;;0.63;;
41532;SDS011;27262;-35.248;149.138;2023-09-30T06:20:44;1.60;;;0.80;;
41532;SDS011;27262;-35.248;149.138;2023-09-30T06:23:14;2.15;;;0.88;;
41532;SDS011;27262;-35.248;149.138;2023-09-30T06:25:45;2.17;;;0.80;;
41532;SDS011;27262;-35.248;149.138;2023-09-30T06:28:15;1.02;;;0.68;;
41532;SDS011;27262;-35.248;149.138;2023-09-30T06:30:46;1.83;;;0.90;;
41532;SDS011;27262;-35.248;149.138;2023-09-30T06:33:19;1.52;;;1.10;;
41532;SDS011;27262;-35.248;149.138;2023-09-30T06:35:49;1.25;;;0.90;;
41532;SDS011;27262;-35.248;149.138;2023-09-30T06:38:23;1.77;;;0.90;;
41532;SDS011;27262;-35.248;149.138;2023-09-30T06:40:56;1.20;;;0.85;;
41532;SDS011;27262;-35.248;149.138;2023-09-30T06:43:28;2.97;;;1.08;;
41532;SDS011;27262;-35.248;149.138;2023-09-30T06:45:58;4.22;;;1.05;;
41532;SDS011;27262;-35.248;149.138;2023-09-30T06:48:29;2.20;;;1.13;;
41532;SDS011;27262;-35.248;149.138;2023-09-30T06:50:59;2.08;;;1.10;;
41532;SDS011;27262;-35.248;149.138;2023-09-30T06:53:30;2.00;;;0.80;;
41532;SDS011;27262;-35.248;149.138;2023-09-30T06:56:03;1.98;;;0.70;;
41532;SDS011;27262;-35.248;149.138;2023-09-30T06:58:34;1.13;;;0.70;;
41532;SDS011;27262;-35.248;149.138;2023-09-30T07:01:05;1.65;;;0.80;;
41532;SDS011;27262;-35.248;149.138;2023-09-30T07:03:35;0.80;;;0.60;;
41532;SDS011;27262;-35.248;149.138;2023-09-30T07:06:06;1.80;;;0.82;;
41532;SDS011;27262;-35.248;149.138;2023-09-30T07:08:37;3.28;;;0.90;;
41532;SDS011;27262;-35.248;149.138;2023-09-30T07:11:07;1.63;;;0.90;;
41532;SDS011;27262;-35.248;149.138;2023-09-30T07:13:39;3.97;;;0.90;;
41532;SDS011;27262;-35.248;149.138;2023-09-30T07:16:09;0.90;;;0.90;;
41532;SDS011;27262;-35.248;149.138;2023-09-30T07:18:40;1.63;;;0.90;;
41532;SDS011;27262;-35.248;149.138;2023-09-30T07:21:11;1.02;;;0.90;;
41532;SDS011;27262;-35.248;149.138;2023-09-30T07:23:42;2.00;;;0.75;;
41532;SDS011;27262;-35.248;149.138;2023-09-30T07:26:13;1.17;;;0.70;;
41532;SDS011;27262;-35.248;149.138;2023-09-30T07:28:43;2.08;;;1.23;;
41532;SDS011;27262;-35.248;149.138;2023-09-30T07:31:13;5.35;;;0.80;;
41532;SDS011;27262;-35.248;149.138;2023-09-30T07:33:44;1.33;;;0.70;;
41532;SDS011;27262;-35.248;149.138;2023-09-30T07:36:14;1.50;;;1.00;;
41532;SDS011;27262;-35.248;149.138;2023-09-30T07:38:45;1.52;;;0.85;;
41532;SDS011;27262;-35.248;149.138;2023-09-30T07:41:16;2.72;;;0.80;;
41532;SDS011;27262;-35.248;149.138;2023-09-30T07:43:46;2.35;;;0.95;;
41532;SDS011;27262;-35.248;149.138;2023-09-30T07:46:16;0.90;;;0.70;;
41532;SDS011;27262;-35.248;149.138;2023-09-30T07:48:47;1.58;;;1.15;;
41532;SDS011;27262;-35.248;149.138;2023-09-30T07:51:17;1.58;;;0.93;;
41532;SDS011;27262;-35.248;149.138;2023-09-30T07:53:47;1.95;;;0.80;;
41532;SDS011;27262;-35.248;149.138;2023-09-30T07:56:19;1.10;;;0.88;;
41532;SDS011;27262;-35.248;149.138;2023-09-30T07:58:50;0.82;;;0.80;;
41532;SDS011;27262;-35.248;149.138;2023-09-30T08:01:21;3.47;;;0.90;;
41532;SDS011;27262;-35.248;149.138;2023-09-30T08:03:51;3.08;;;0.98;;
41532;SDS011;27262;-35.248;149.138;2023-09-30T08:06:22;2.88;;;1.08;;
41532;SDS011;27262;-35.248;149.138;2023-09-30T08:08:53;1.08;;;0.80;;
41532;SDS011;27262;-35.248;149.138;2023-09-30T08:11:24;2.33;;;1.25;;
41532;SDS011;27262;-35.248;149.138;2023-09-30T08:13:59;1.20;;;1.10;;
41532;SDS011;27262;-35.248;149.138;2023-09-30T08:16:38;1.55;;;0.93;;
41532;SDS011;27262;-35.248;149.138;2023-09-30T08:19:09;1.67;;;0.60;;
41532;SDS011;27262;-35.248;149.138;2023-09-30T08:21:39;3.20;;;1.00;;
41532;SDS011;27262;-35.248;149.138;2023-09-30T08:24:10;1.65;;;0.77;;
41532;SDS011;27262;-35.248;149.138;2023-09-30T08:26:40;1.23;;;0.90;;
41532;SDS011;27262;-35.248;149.138;2023-09-30T08:29:10;1.25;;;0.90;;
41532;SDS011;27262;-35.248;149.138;2023-09-30T08:31:41;0.93;;;0.70;;
41532;SDS011;27262;-35.248;149.138;2023-09-30T08:34:11;3.50;;;1.08;;
41532;SDS011;27262;-35.248;149.138;2023-09-30T08:36:43;1.20;;;1.10;;
41532;SDS011;27262;-35.248;149.138;2023-09-30T08:39:13;1.10;;;0.90;;
41532;SDS011;27262;-35.248;149.138;2023-09-30T08:41:44;0.90;;;0.75;;
41532;SDS011;27262;-35.248;149.138;2023-09-30T08:44:14;1.83;;;0.90;;
41532;SDS011;27262;-35.248;149.138;2023-09-30T08:46:45;0.85;;;0.85;;
41532;SDS011;27262;-35.248;149.138;2023-09-30T08:49:16;1.00;;;0.90;;
41532;SDS011;27262;-35.248;149.138;2023-09-30T08:51:48;1.45;;;1.00;;
41532;SDS011;27262;-35.248;149.138;2023-09-30T08:54:20;3.25;;;1.10;;
41532;SDS011;27262;-35.248;149.138;2023-09-30T08:56:52;2.58;;;1.20;;
41532;SDS011;27262;-35.248;149.138;2023-09-30T08:59:23;2.47;;;1.08;;
41532;SDS011;27262;-35.248;149.138;2023-09-30T09:01:55;2.08;;;1.08;;
41532;SDS011;27262;-35.248;149.138;2023-09-30T09:04:27;2.40;;;0.90;;
41532;SDS011;27262;-35.248;149.138;2023-09-30T09:06:57;4.93;;;1.35;;
41532;SDS011;27262;-35.248;149.138;2023-09-30T09:09:28;1.48;;;1.10;;
41532;SDS011;27262;-35.248;149.138;2023-09-30T09:11:58;2.25;;;1.27;;
41532;SDS011;27262;-35.248;149.138;2023-09-30T09:14:41;4.97;;;1.27;;
41532;SDS011;27262;-35.248;149.138;2023-09-30T09:17:12;3.75;;;1.40;;
41532;SDS011;27262;-35.248;149.138;2023-09-30T09:19:45;4.30;;;1.33;;
41532;SDS011;27262;-35.248;149.138;2023-09-30T09:22:38;1.65;;;1.33;;
41532;SDS011;27262;-35.248;149.138;2023-09-30T09:25:10;2.40;;;1.25;;
41532;SDS011;27262;-35.248;149.138;2023-09-30T09:27:41;1.27;;;1.17;;
41532;SDS011;27262;-35.248;149.138;2023-09-30T09:30:16;0.85;;;0.75;;
41532;SDS011;27262;-35.248;149.138;2023-09-30T09:33:01;2.08;;;1.33;;
41532;SDS011;27262;-35.248;149.138;2023-09-30T09:35:35;2.17;;;1.40;;
41532;SDS011;27262;-35.248;149.138;2023-09-30T09:38:06;1.73;;;1.25;;
41532;SDS011;27262;-35.248;149.138;2023-09-30T09:40:37;3.83;;;1.27;;
41532;SDS011;27262;-35.248;149.138;2023-09-30T09:43:09;1.63;;;1.20;;
41532;SDS011;27262;-35.248;149.138;2023-09-30T09:45:40;1.40;;;1.30;;
41532;SDS011;27262;-35.248;149.138;2023-09-30T09:48:12;1.15;;;0.90;;
41532;SDS011;27262;-35.248;149.138;2023-09-30T09:50:44;1.15;;;1.05;;
41532;SDS011;27262;-35.248;149.138;2023-09-30T09:53:17;2.42;;;1.30;;
41532;SDS011;27262;-35.248;149.138;2023-09-30T09:55:49;2.90;;;1.20;;
41532;SDS011;27262;-35.248;149.138;2023-09-30T09:58:21;1.23;;;1.13;;
41532;SDS011;27262;-35.248;149.138;2023-09-30T10:00:53;1.30;;;1.20;;
41532;SDS011;27262;-35.248;149.138;2023-09-30T10:03:27;2.25;;;1.50;;
41532;SDS011;27262;-35.248;149.138;2023-09-30T10:05:58;0.95;;;0.90;;
41532;SDS011;27262;-35.248;149.138;2023-09-30T10:08:37;1.35;;;1.25;;
41532;SDS011;27262;-35.248;149.138;2023-09-30T10:11:18;1.77;;;1.10;;
41532;SDS011;27262;-35.248;149.138;2023-09-30T10:13:54;1.20;;;1.10;;
41532;SDS011;27262;-35.248;149.138;2023-09-30T10:19:16;1.63;;;1.40;;
41532;SDS011;27262;-35.248;149.138;2023-09-30T10:24:56;2.53;;;1.60;;
41532;SDS011;27262;-35.248;149.138;2023-09-30T10:27:31;3.03;;;1.55;;
41532;SDS011;27262;-35.248;149.138;2023-09-30T10:30:08;1.83;;;1.40;;
41532;SDS011;27262;-35.248;149.138;2023-09-30T10:41:49;1.30;;;0.98;;
41532;SDS011;27262;-35.248;149.138;2023-09-30T10:44:32;3.33;;;1.40;;
41532;SDS011;27262;-35.248;149.138;2023-09-30T10:53:49;2.22;;;1.40;;
41532;SDS011;27262;-35.248;149.138;2023-09-30T10:56:41;1.67;;;1.25;;
41532;SDS011;27262;-35.248;149.138;2023-09-30T10:59:32;3.30;;;1.55;;
41532;SDS011;27262;-35.248;149.138;2023-09-30T11:02:23;2.10;;;1.23;;
41532;SDS011;27262;-35.248;149.138;2023-09-30T11:05:15;3.67;;;1.20;;
41532;SDS011;27262;-35.248;149.138;2023-09-30T11:08:06;1.30;;;1.20;;
41532;SDS011;27262;-35.248;149.138;2023-09-30T11:10:59;2.65;;;1.55;;
41532;SDS011;27262;-35.248;149.138;2023-09-30T11:13:51;2.33;;;1.40;;
41532;SDS011;27262;-35.248;149.138;2023-09-30T11:16:42;1.73;;;1.45;;
41532;SDS011;27262;-35.248;149.138;2023-09-30T11:19:37;1.80;;;1.30;;
41532;SDS011;27262;-35.248;149.138;2023-09-30T11:22:37;1.90;;;1.33;;
41532;SDS011;27262;-35.248;149.138;2023-09-30T11:25:28;2.38;;;1.40;;
41532;SDS011;27262;-35.248;149.138;2023-09-30T11:28:34;1.27;;;1.13;;
41532;SDS011;27262;-35.248;149.138;2023-09-30T11:31:28;1.83;;;1.42;;
41532;SDS011;27262;-35.248;149.138;2023-09-30T11:34:30;2.00;;;1.10;;
41532;SDS011;27262;-35.248;149.138;2023-09-30T11:37:34;5.55;;;1.27;;
41532;SDS011;27262;-35.248;149.138;2023-09-30T11:40:24;3.25;;;1.23;;
41532;SDS011;27262;-35.248;149.138;2023-09-30T11:43:15;2.22;;;1.20;;
41532;SDS011;27262;-35.248;149.138;2023-09-30T11:49:01;2.70;;;1.35;;
41532;SDS011;27262;-35.248;149.138;2023-09-30T11:51:58;4.20;;;1.48;;
41532;SDS011;27262;-35.248;149.138;2023-09-30T11:54:50;2.72;;;1.50;;
41532;SDS011;27262;-35.248;149.138;2023-09-30T11:57:41;2.13;;;1.75;;
41532;SDS011;27262;-35.248;149.138;2023-09-30T12:00:32;2.83;;;1.40;;
41532;SDS011;27262;-35.248;149.138;2023-09-30T12:03:23;3.58;;;1.50;;
41532;SDS011;27262;-35.248;149.138;2023-09-30T12:06:14;2.00;;;1.73;;
41532;SDS011;27262;-35.248;149.138;2023-09-30T12:09:06;1.95;;;1.50;;
41532;SDS011;27262;-35.248;149.138;2023-09-30T12:12:02;2.45;;;1.65;;
41532;SDS011;27262;-35.248;149.138;2023-09-30T12:14:55;2.97;;;1.73;;
41532;SDS011;27262;-35.248;149.138;2023-09-30T12:17:45;1.40;;;1.30;;
41532;SDS011;27262;-35.248;149.138;2023-09-30T12:20:36;4.68;;;1.67;;
41532;SDS011;27262;-35.248;149.138;2023-09-30T12:23:27;3.65;;;1.67;;
41532;SDS011;27262;-35.248;149.138;2023-09-30T12:26:18;2.53;;;1.58;;
41532;SDS011;27262;-35.248;149.138;2023-09-30T12:29:08;1.40;;;1.30;;
41532;SDS011;27262;-35.248;149.138;2023-09-30T12:31:59;3.08;;;1.73;;
41532;SDS011;27262;-35.248;149.138;2023-09-30T12:34:50;2.88;;;1.60;;
41532;SDS011;27262;-35.248;149.138;2023-09-30T12:37:41;1.70;;;1.60;;
41532;SDS011;27262;-35.248;149.138;2023-09-30T12:40:34;1.88;;;1.48;;
41532;SDS011;27262;-35.248;149.138;2023-09-30T12:43:25;3.40;;;1.48;;
41532;SDS011;27262;-35.248;149.138;2023-09-30T12:46:16;1.33;;;1.23;;
41532;SDS011;27262;-35.248;149.138;2023-09-30T12:49:07;4.63;;;1.60;;
41532;SDS011;27262;-35.248;149.138;2023-09-30T12:51:58;4.18;;;1.77;;
41532;SDS011;27262;-35.248;149.138;2023-09-30T12:54:50;1.90;;;1.70;;
41532;SDS011;27262;-35.248;149.138;2023-09-30T12:57:40;2.42;;;1.40;;
41532;SDS011;27262;-35.248;149.138;2023-09-30T13:00:32;1.98;;;1.63;;
41532;SDS011;27262;-35.248;149.138;2023-09-30T13:03:24;1.60;;;1.50;;
41532;SDS011;27262;-35.248;149.138;2023-09-30T13:06:15;1.73;;;1.60;;
41532;SDS011;27262;-35.248;149.138;2023-09-30T13:09:06;2.28;;;1.48;;
41532;SDS011;27262;-35.248;149.138;2023-09-30T13:11:59;2.22;;;1.60;;
41532;SDS011;27262;-35.248;149.138;2023-09-30T13:14:49;1.98;;;1.67;;
41532;SDS011;27262;-35.248;149.138;2023-09-30T13:17:42;2.03;;;1.50;;
41532;SDS011;27262;-35.248;149.138;2023-09-30T13:20:33;1.75;;;1.60;;
41532;SDS011;27262;-35.248;149.138;2023-09-30T13:23:24;1.85;;;1.55;;
41532;SDS011;27262;-35.248;149.138;2023-09-30T13:26:16;5.93;;;1.92;;
41532;SDS011;27262;-35.248;149.138;2023-09-30T13:29:08;1.50;;;1.40;;
41532;SDS011;27262;-35.248;149.138;2023-09-30T13:32:00;2.50;;;1.67;;
41532;SDS011;27262;-35.248;149.138;2023-09-30T13:34:53;2.47;;;1.90;;
41532;SDS011;27262;-35.248;149.138;2023-09-30T13:37:44;2.20;;;1.70;;
41532;SDS011;27262;-35.248;149.138;2023-09-30T13:40:35;3.72;;;1.98;;
41532;SDS011;27262;-35.248;149.138;2023-09-30T13:43:27;1.70;;;1.60;;
41532;SDS011;27262;-35.248;149.138;2023-09-30T13:46:18;2.00;;;1.75;;
41532;SDS011;27262;-35.248;149.138;2023-09-30T13:49:13;2.45;;;1.70;;
41532;SDS011;27262;-35.248;149.138;2023-09-30T13:52:04;3.80;;;1.70;;
41532;SDS011;27262;-35.248;149.138;2023-09-30T13:54:55;2.15;;;1.70;;
41532;SDS011;27262;-35.248;149.138;2023-09-30T13:57:46;2.85;;;1.90;;
41532;SDS011;27262;-35.248;149.138;2023-09-30T14:00:37;1.83;;;1.60;;
41532;SDS011;27262;-35.248;149.138;2023-09-30T14:03:28;2.47;;;1.75;;
41532;SDS011;27262;-35.248;149.138;2023-09-30T14:06:19;2.00;;;1.77;;
41532;SDS011;27262;-35.248;149.138;2023-09-30T14:09:11;2.13;;;1.70;;
41532;SDS011;27262;-35.248;149.138;2023-09-30T14:12:21;3.17;;;2.15;;
41532;SDS011;27262;-35.248;149.138;2023-09-30T14:15:12;3.75;;;2.13;;
41532;SDS011;27262;-35.248;149.138;2023-09-30T14:18:04;2.40;;;1.85;;
41532;SDS011;27262;-35.248;149.138;2023-09-30T14:20:55;1.73;;;1.63;;
41532;SDS011;27262;-35.248;149.138;2023-09-30T14:23:46;2.50;;;1.95;;
41532;SDS011;27262;-35.248;149.138;2023-09-30T14:26:36;2.15;;;1.95;;
41532;SDS011;27262;-35.248;149.138;2023-09-30T14:29:28;2.55;;;1.90;;
41532;SDS011;27262;-35.248;149.138;2023-09-30T14:32:21;3.53;;;1.98;;
41532;SDS011;27262;-35.248;149.138;2023-09-30T14:35:12;2.25;;;2.00;;
41532;SDS011;27262;-35.248;149.138;2023-09-30T14:38:04;2.17;;;1.98;;
41532;SDS011;27262;-35.248;149.138;2023-09-30T14:40:55;2.58;;;2.00;;
41532;SDS011;27262;-35.248;149.138;2023-09-30T14:43:46;2.88;;;1.85;;
41532;SDS011;27262;-35.248;149.138;2023-09-30T14:46:37;3.58;;;2.13;;
41532;SDS011;27262;-35.248;149.138;2023-09-30T14:49:32;3.13;;;1.70;;
41532;SDS011;27262;-35.248;149.138;2023-09-30T14:52:24;2.25;;;2.05;;
41532;SDS011;27262;-35.248;149.138;2023-09-30T14:55:14;2.58;;;1.98;;
41532;SDS011;27262;-35.248;149.138;2023-09-30T14:58:05;2.80;;;2.13;;
41532;SDS011;27262;-35.248;149.138;2023-09-30T15:00:56;2.30;;;1.70;;
41532;SDS011;27262;-35.248;149.138;2023-09-30T15:03:47;3.50;;;1.95;;
41532;SDS011;27262;-35.248;149.138;2023-09-30T15:06:38;2.33;;;1.65;;
41532;SDS011;27262;-35.248;149.138;2023-09-30T15:09:30;2.85;;;2.28;;
41532;SDS011;27262;-35.248;149.138;2023-09-30T15:12:21;3.58;;;2.08;;
41532;SDS011;27262;-35.248;149.138;2023-09-30T15:15:11;2.17;;;1.80;;
41532;SDS011;27262;-35.248;149.138;2023-09-30T15:18:02;2.10;;;1.85;;
41532;SDS011;27262;-35.248;149.138;2023-09-30T15:20:53;2.42;;;2.05;;
41532;SDS011;27262;-35.248;149.138;2023-09-30T15:23:44;2.05;;;1.80;;
41532;SDS011;27262;-35.248;149.138;2023-09-30T15:26:34;2.80;;;2.03;;
41532;SDS011;27262;-35.248;149.138;2023-09-30T15:29:26;1.92;;;1.70;;
41532;SDS011;27262;-35.248;149.138;2023-09-30T15:31:56;2.50;;;2.08;;